createdAt,value
2022-11-18T00:02:54.579Z,7.50
2022-11-18T00:07:56.340Z,8.48
2022-11-18T00:13:16.631Z,7.85
2022-11-18T00:18:18.429Z,7.78
2022-11-18T00:23:20.188Z,8.52
2022-11-18T00:28:22.023Z,7.50
2022-11-18T00:33:24.570Z,7.35
2022-11-18T00:38:26.940Z,6.90
2022-11-18T00:43:29.282Z,6.88
2022-11-18T00:48:31.216Z,7.20
2022-11-18T00:53:33.009Z,8.32
2022-11-18T00:58:35.242Z,7.80
2022-11-18T01:03:37.034Z,8.15
2022-11-18T01:08:38.899Z,7.55
2022-11-18T01:13:40.673Z,7.20
2022-11-18T01:18:42.436Z,7.63
2022-11-18T01:23:45.354Z,8.05
2022-11-18T01:28:47.174Z,7.38
2022-11-18T01:33:48.939Z,7.50
2022-11-18T01:38:52.045Z,7.28
2022-11-18T01:44:25.910Z,7.78
2022-11-18T01:49:28.051Z,7.63
2022-11-18T01:54:39.818Z,7.60
2022-11-18T01:59:44.352Z,8.35
2022-11-18T02:04:49.998Z,8.48
2022-11-18T02:09:53.735Z,7.57
2022-11-18T02:14:55.677Z,7.55
2022-11-18T02:20:09.768Z,9.07
2022-11-18T02:25:39.339Z,8.85
2022-11-18T02:30:59.306Z,8.95
2022-11-18T02:36:13.272Z,9.25
2022-11-18T02:41:25.250Z,8.15
2022-11-18T02:46:34.430Z,8.50
2022-11-18T02:51:37.094Z,8.85
2022-11-18T02:56:39.200Z,8.68
2022-11-18T03:01:41.017Z,9.27
2022-11-18T03:06:52.109Z,8.70
2022-11-18T03:12:44.687Z,8.95
2022-11-18T03:18:11.011Z,8.57
2022-11-18T03:23:28.280Z,9.25
2022-11-18T03:28:47.294Z,9.13
2022-11-18T03:34:03.463Z,9.63
2022-11-18T03:39:10.074Z,8.85
2022-11-18T03:44:17.091Z,9.75
2022-11-18T03:49:30.299Z,10.73
2022-11-18T03:54:36.113Z,9.75
2022-11-18T04:00:06.504Z,10.07
2022-11-18T04:05:11.879Z,10.02
2022-11-18T04:10:17.002Z,10.02
2022-11-18T04:15:19.258Z,10.02
2022-11-18T04:20:22.545Z,10.95
2022-11-18T04:25:27.089Z,9.85
2022-11-18T04:30:29.078Z,10.30
2022-11-18T04:35:30.903Z,10.55
2022-11-18T04:40:32.696Z,9.88
2022-11-18T04:45:34.508Z,10.05
2022-11-18T04:50:36.292Z,10.35
2022-11-18T04:55:38.142Z,10.07
2022-11-18T05:00:40.157Z,11.15
2022-11-18T05:05:41.927Z,10.55
2022-11-18T05:10:43.686Z,10.85
2022-11-18T05:15:45.459Z,10.20
2022-11-18T05:20:47.216Z,10.20
2022-11-18T05:25:48.954Z,10.77
2022-11-18T05:30:50.736Z,9.88
2022-11-18T05:35:55.067Z,10.65
2022-11-18T05:40:57.557Z,11.88
2022-11-18T05:45:59.850Z,11.70
2022-11-18T05:51:01.604Z,11.15
2022-11-18T05:56:15.345Z,11.00
2022-11-18T06:01:22.796Z,11.02
2022-11-18T06:06:25.297Z,13.48
2022-11-18T06:11:29.117Z,11.98
2022-11-18T06:16:39.458Z,16.08
2022-11-18T06:21:43.845Z,15.27
2022-11-18T06:26:46.745Z,17.15
2022-11-18T06:31:48.554Z,17.73
2022-11-18T06:36:50.318Z,19.45
2022-11-18T06:41:55.202Z,20.23
2022-11-18T06:46:57.315Z,22.90
2022-11-18T06:51:59.124Z,23.45
2022-11-18T06:57:00.949Z,24.17
2022-11-18T07:02:02.798Z,24.92
2022-11-18T07:07:04.659Z,26.20
2022-11-18T07:12:06.553Z,24.00
2022-11-18T07:17:08.451Z,23.98
2022-11-18T07:22:10.239Z,24.60
2022-11-18T07:27:12.020Z,23.88
2022-11-18T07:32:13.818Z,25.38
2022-11-18T07:37:15.624Z,25.45
2022-11-18T07:42:17.419Z,22.23
2022-11-18T07:47:19.201Z,21.35
2022-11-18T07:52:20.988Z,21.30
2022-11-18T07:57:22.782Z,22.38
2022-11-18T08:02:24.566Z,21.02
2022-11-18T08:07:26.467Z,19.55
2022-11-18T08:12:30.793Z,19.45
2022-11-18T08:17:32.911Z,20.40
2022-11-18T08:22:34.753Z,20.52
2022-11-18T08:27:36.585Z,25.23
2022-11-18T08:32:38.437Z,22.35
2022-11-18T08:37:40.248Z,21.27
2022-11-18T08:42:42.010Z,21.05
2022-11-18T08:47:43.859Z,22.15
2022-11-18T08:52:45.670Z,21.15
2022-11-18T08:57:48.063Z,20.30
2022-11-18T09:02:50.275Z,19.88
2022-11-18T09:07:52.058Z,20.60
2022-11-18T09:12:54.812Z,19.45
2022-11-18T09:17:57.948Z,20.60
2022-11-18T09:22:59.730Z,19.30
2022-11-18T09:28:01.522Z,20.42
2022-11-18T09:33:03.547Z,20.85
2022-11-18T09:38:05.361Z,21.52
2022-11-18T09:43:20.872Z,21.23
2022-11-18T09:48:45.897Z,20.95
2022-11-18T09:53:47.915Z,21.40
2022-11-18T09:58:50.450Z,20.23
2022-11-18T10:03:52.308Z,20.88
2022-11-18T10:09:13.780Z,19.83
2022-11-18T10:14:49.717Z,18.92
2022-11-18T10:19:51.480Z,19.48
2022-11-18T10:24:55.375Z,20.27
2022-11-18T10:29:58.405Z,20.70
2022-11-18T10:35:00.176Z,21.30
2022-11-18T10:40:05.297Z,22.80
2022-11-18T10:45:27.435Z,23.38
2022-11-18T10:50:39.828Z,25.30
2022-11-18T10:55:41.584Z,22.52
2022-11-18T11:00:49.344Z,25.30
2022-11-18T11:06:33.212Z,24.77
2022-11-18T11:11:40.055Z,24.98
2022-11-18T11:16:52.106Z,26.93
2022-11-18T11:21:53.977Z,27.63
2022-11-18T11:32:55.094Z,25.25
2022-11-18T11:38:04.349Z,24.60
2022-11-18T11:43:24.764Z,22.60
2022-11-18T11:48:41.710Z,19.67
2022-11-18T11:53:46.607Z,17.63
2022-11-18T11:59:08.825Z,18.97
2022-11-18T12:04:22.735Z,16.27
2022-11-18T12:09:33.730Z,13.60
2022-11-18T12:14:46.853Z,13.40
2022-11-18T12:19:49.027Z,14.77
2022-11-18T12:24:50.957Z,15.70
2022-11-18T12:30:03.998Z,17.07
2022-11-18T12:35:25.505Z,18.43
2022-11-18T12:40:52.206Z,18.50
2022-11-18T12:45:57.137Z,15.47
2022-11-18T12:51:26.386Z,14.07
2022-11-18T12:56:33.504Z,13.17
2022-11-18T13:01:35.572Z,12.07
2022-11-18T13:06:39.207Z,12.50
2022-11-18T13:11:50.962Z,12.67
2022-11-18T13:17:11.372Z,12.90
2022-11-18T13:22:36.792Z,11.90
2022-11-18T13:27:58.426Z,12.30
2022-11-18T13:33:00.639Z,11.10
2022-11-18T13:38:03.245Z,14.02
2022-11-18T13:43:05.633Z,11.43
2022-11-18T13:48:12.666Z,12.60
2022-11-18T13:53:19.073Z,12.03
2022-11-18T13:58:55.651Z,12.70
2022-11-18T14:03:58.782Z,12.60
2022-11-18T14:09:26.715Z,12.83
2022-11-18T14:14:34.023Z,15.50
2022-11-18T14:19:36.811Z,17.87
2022-11-18T14:24:38.673Z,18.17
2022-11-18T14:29:49.663Z,20.73
2022-11-18T14:35:01.235Z,21.27
2022-11-18T14:40:03.154Z,20.37
2022-11-18T14:45:05.307Z,20.93
2022-11-18T14:50:14.959Z,20.83
2022-11-18T14:55:16.869Z,22.83
2022-11-18T15:00:19.744Z,22.43
2022-11-18T15:05:21.647Z,23.30
2022-11-18T15:10:23.490Z,22.60
2022-11-18T15:15:25.545Z,25.90
2022-11-18T15:20:27.497Z,25.07
2022-11-18T15:25:29.435Z,25.47
2022-11-18T15:30:31.244Z,26.63
2022-11-18T15:35:33.088Z,28.40
2022-11-18T15:40:35.198Z,27.50
2022-11-18T15:45:37.010Z,29.47
2022-11-18T15:50:39.637Z,29.03
2022-11-18T15:55:41.813Z,31.03
2022-11-18T16:00:45.079Z,32.13
2022-11-18T16:05:47.260Z,32.13
2022-11-18T16:11:13.204Z,34.00
2022-11-18T16:16:23.362Z,34.43
2022-11-18T16:21:26.667Z,37.07
2022-11-18T16:26:32.764Z,37.10
2022-11-18T16:31:40.859Z,36.63
2022-11-18T16:36:44.913Z,37.40
2022-11-18T16:41:46.742Z,40.00
2022-11-18T16:46:51.241Z,37.37
2022-11-18T16:51:55.191Z,39.40
2022-11-18T16:56:58.696Z,40.33
2022-11-18T17:02:01.097Z,41.17
2022-11-18T17:07:03.419Z,45.07
2022-11-18T17:12:05.866Z,41.03
2022-11-18T17:17:07.846Z,41.07
2022-11-18T17:22:09.665Z,40.07
2022-11-18T17:27:11.498Z,40.23
2022-11-18T17:32:13.337Z,41.53
2022-11-18T17:37:15.097Z,40.20
2022-11-18T17:42:19.171Z,39.53
2022-11-18T17:47:21.163Z,41.07
2022-11-18T17:52:22.960Z,42.50
2022-11-18T17:57:24.710Z,40.67
2022-11-18T18:02:26.549Z,39.80
2022-11-18T18:07:30.299Z,41.13
2022-11-18T18:12:50.816Z,41.50
2022-11-18T18:17:52.714Z,40.37
2022-11-18T18:22:54.591Z,40.00
2022-11-18T18:27:56.398Z,38.57
2022-11-18T18:32:58.269Z,40.60
2022-11-18T18:38:00.313Z,38.50
2022-11-18T18:43:02.099Z,35.23
2022-11-18T18:48:04.073Z,37.27
2022-11-18T18:53:05.874Z,52.78
2022-11-18T18:58:07.810Z,38.17
2022-11-18T19:03:09.611Z,35.23
2022-11-18T19:08:11.404Z,35.83
2022-11-18T19:13:13.194Z,34.67
2022-11-18T19:18:15.063Z,31.73
2022-11-18T19:23:18.147Z,33.73
2022-11-18T19:28:20.020Z,34.40
2022-11-18T19:33:21.886Z,32.93
2022-11-18T19:38:23.727Z,35.60
2022-11-18T19:43:27.285Z,35.20
2022-11-18T19:48:29.761Z,35.93
2022-11-18T19:53:35.163Z,34.73
2022-11-18T19:58:38.595Z,36.43
2022-11-18T20:03:44.896Z,34.57
2022-11-18T20:08:47.778Z,33.00
2022-11-18T20:13:50.278Z,30.67
2022-11-18T20:18:57.766Z,31.70
2022-11-18T20:24:04.586Z,29.43
2022-11-18T20:29:08.118Z,27.83
2022-11-18T20:34:14.314Z,28.33
2022-11-18T20:39:16.736Z,25.63
2022-11-18T20:44:18.679Z,26.67
2022-11-18T20:49:20.798Z,25.70
2022-11-18T20:54:22.718Z,24.53
2022-11-18T20:59:24.690Z,25.70
2022-11-18T21:04:26.509Z,23.37
2022-11-18T21:09:31.775Z,23.07
2022-11-18T21:14:33.576Z,22.03
2022-11-18T21:19:35.380Z,20.67
2022-11-18T21:24:37.909Z,18.77
2022-11-18T21:29:40.815Z,16.93
2022-11-18T21:34:42.599Z,17.47
2022-11-18T21:39:45.916Z,17.63
2022-11-18T21:44:49.302Z,17.20
2022-11-18T21:49:51.075Z,17.50
2022-11-18T21:54:52.891Z,16.23
2022-11-18T21:59:55.382Z,15.90
2022-11-18T22:04:58.162Z,15.90
2022-11-18T22:10:00.179Z,15.27
2022-11-18T22:15:01.983Z,15.77
2022-11-18T22:20:04.127Z,15.93
2022-11-18T22:25:06.686Z,15.67
2022-11-18T22:30:08.907Z,15.37
2022-11-18T22:35:10.768Z,15.90
2022-11-18T22:40:13.003Z,15.40
2022-11-18T22:45:15.809Z,14.57
2022-11-18T22:50:17.920Z,14.60
2022-11-18T22:55:20.256Z,14.73
2022-11-18T23:00:22.045Z,15.27
2022-11-18T23:05:23.885Z,13.80
2022-11-18T23:10:25.649Z,15.77
2022-11-18T23:15:27.453Z,14.20
2022-11-18T23:20:29.229Z,14.17
2022-11-18T23:25:31.900Z,15.70
2022-11-18T23:30:33.887Z,15.13
2022-11-18T23:35:35.768Z,14.37
2022-11-18T23:40:37.564Z,15.67
2022-11-18T23:45:39.378Z,13.80
2022-11-18T23:50:41.312Z,15.07
2022-11-18T23:55:43.135Z,14.53
